Time;durP1;ratioP1;P1;durP2;ratioP2;P2;SDS_P1;SDS_P2;PMS_P1;PMS_P2;Temp;Humidity;BMP_temperature;BMP_pressure;BME280_temperature;BME280_humidity;BME280_pressure;Samples;Min_cycle;Max_cycle;Signal;HPM_P1;HPM_P2
2022/02/24 00:00:04;;;;;;;;;;;;;;;-147.53;100.00;59759.91;5037273;28;19928;-80
2022/02/24 00:02:29;;;;;;;;;;;;;;;-147.53;100.00;59759.91;5053787;28;19924;-81
2022/02/24 00:04:55;;;;;;;;;;;;;;;-147.53;100.00;59759.91;5036992;28;19916;-79
2022/02/24 00:07:20;;;;;;;;;;;;;;;-147.53;100.00;59759.91;5037110;28;19920;-80
2022/02/24 00:09:45;;;;;;;;;;;;;;;-147.53;100.00;59759.91;5037448;28;19982;-80
2022/02/24 00:12:11;;;;;;;;;;;;;;;-147.53;100.00;59759.91;5055013;28;20274;-80
2022/02/24 00:14:36;;;;;;;;;;;;;;;-147.53;100.00;59759.91;5054997;28;19917;-80
2022/02/24 00:17:02;;;;;;;;;;;;;;;-147.53;100.00;59759.91;5037235;28;19921;-80
2022/02/24 00:19:27;;;;;;;;;;;;;;;-147.53;100.00;59759.91;5037235;28;19925;-80
2022/02/24 00:21:52;;;;;;;;;;;;;;;-147.53;100.00;59759.91;5037191;28;19917;-80
2022/02/24 00:24:17;;;;;;;;;;;;;;;-147.53;100.00;59759.91;5054910;28;20034;-80
2022/02/24 00:26:42;;;;;;;;;;;;;;;-147.53;100.00;59759.91;5054678;28;19971;-80
2022/02/24 00:29:08;;;;;;;;;;;;;;;-147.53;100.00;59759.91;5036981;28;19924;-79
2022/02/24 00:31:33;;;;;;;;;;;;;;;-147.53;100.00;59759.91;5036719;28;19916;-81
2022/02/24 00:33:59;;;;;;;;;;;;;;;-147.53;100.00;59759.91;5036661;28;20326;-80
2022/02/24 00:36:24;;;;;;;;;;;;;;;-147.53;100.00;59759.91;5036378;28;19923;-80
2022/02/24 00:38:49;;;;;;;;;;;;;;;-147.53;100.00;59759.91;5036527;28;20001;-80
2022/02/24 00:41:15;;;;;;;;;;;;;;;-147.53;100.00;59759.91;5036520;28;19917;-80
2022/02/24 00:43:40;;;;;;;;;;;;;;;-147.53;100.00;59759.91;5036351;28;19962;-80
2022/02/24 00:46:05;;;;;;;;;;;;;;;-147.53;100.00;59759.91;5054402;28;19923;-80
2022/02/24 00:48:30;;;;;;;;;;;;;;;-147.53;100.00;59759.91;5036343;28;19921;-80
2022/02/24 00:50:56;;;;;;;;;;;;;;;-147.53;100.00;59759.91;5036085;28;19925;-81
2022/02/24 00:53:21;;;;;;;;;;;;;;;-147.53;100.00;59759.91;5036066;28;20026;-80
2022/02/24 00:55:46;;;;;;;;;;;;;;;-147.53;100.00;59759.91;5035857;28;20337;-81
2022/02/24 00:58:11;;;;;;;;;;;;;;;-147.53;100.00;59759.91;5036226;28;20294;-81
2022/02/24 01:00:37;;;;;;;;;;;;;;;-147.53;100.00;59759.91;5036105;28;19955;-80
2022/02/24 01:03:02;;;;;;;;;;;;;;;-147.53;100.00;59759.91;5035679;28;20016;-81
2022/02/24 01:05:27;;;;;;;;;;;;;;;-147.53;100.00;59759.91;5053829;28;19924;-80
2022/02/24 01:07:52;;;;;;;;;;;;;;;-147.53;100.00;59759.91;5035786;28;19924;-80
2022/02/24 01:10:17;;;;;;;;;;;;;;;-147.53;100.00;59759.91;5035577;28;19924;-80
2022/02/24 01:12:43;;;;;;;;;;;;;;;-147.53;100.00;59759.91;5053655;28;19924;-80
2022/02/24 01:15:08;;;;;;;;;;;;;;;-147.53;100.00;59759.91;5035741;28;19916;-80
2022/02/24 01:17:36;;;;;;;;;;;;;;;-147.53;100.00;59759.91;5035492;28;19921;-80
2022/02/24 01:20:06;;;;;;;;;;;;;;;-147.53;100.00;59759.91;5035492;28;19928;-81
2022/02/24 01:22:31;;;;;;;;;;;;;;;-147.53;100.00;59759.91;5035001;28;19931;-81
2022/02/24 01:24:57;;;;;;;;;;;;;;;-147.53;100.00;59759.91;5053414;28;19917;-80
2022/02/24 01:27:22;;;;;;;;;;;;;;;-147.53;100.00;59759.91;5035431;28;20008;-80
2022/02/24 01:29:47;;;;;;;;;;;;;;;-147.53;100.00;59759.91;5035385;28;19960;-80
2022/02/24 01:32:12;;;;;;;;;;;;;;;-147.53;100.00;59759.91;5035345;28;19917;-81
2022/02/24 01:34:38;;;;;;;;;;;;;;;-147.53;100.00;59759.91;5035149;28;19917;-80
2022/02/24 01:37:03;;;;;;;;;;;;;;;-147.53;100.00;59759.91;5035269;28;19916;-80
2022/02/24 01:39:29;;;;;;;;;;;;;;;-147.53;100.00;59759.91;5035211;28;20007;-79
2022/02/24 01:41:55;;;;;;;;;;;;;;;-147.53;100.00;59759.91;5053191;28;20378;-81
2022/02/24 01:44:21;;;;;;;;;;;;;;;-147.53;100.00;59759.91;5035229;28;19921;-81
2022/02/24 01:46:46;;;;;;;;;;;;;;;-147.53;100.00;59759.91;5035182;28;19924;-80
2022/02/24 01:49:11;;;;;;;;;;;;;;;-147.53;100.00;59759.91;5035115;28;19921;-81
2022/02/24 01:51:37;;;;;;;;;;;;;;;-147.53;100.00;59759.91;5053130;28;19974;-80
2022/02/24 01:54:03;;;;;;;;;;;;;;;-147.53;100.00;59759.91;5035098;28;19925;-80
2022/02/24 01:56:28;;;;;;;;;;;;;;;-147.53;100.00;59759.91;5035096;28;19916;-81
2022/02/24 01:58:54;;;;;;;;;;;;;;;-147.53;100.00;59759.91;5035322;28;19999;-81
2022/02/24 02:01:19;;;;;;;;;;;;;;;-147.53;100.00;59759.91;5052910;28;19916;-80
2022/02/24 02:03:45;;;;;;;;;;;;;;;-147.53;100.00;59759.91;5034981;28;19917;-80
2022/02/24 02:06:10;;;;;;;;;;;;;;;-147.53;100.00;59759.91;5034887;28;19920;-80
2022/02/24 02:08:36;;;;;;;;;;;;;;;-147.53;100.00;59759.91;5034972;28;19917;-81
2022/02/24 02:11:01;;;;;;;;;;;;;;;-147.53;100.00;59759.91;5034931;28;19917;-81
2022/02/24 02:13:26;;;;;;;;;;;;;;;-147.53;100.00;59759.91;5034815;28;19917;-81
2022/02/24 02:15:52;;;;;;;;;;;;;;;-147.53;100.00;59759.91;5034922;28;19916;-81
2022/02/24 02:18:19;;;;;;;;;;;;;;;-147.53;100.00;59759.91;5034506;28;19967;-81
2022/02/24 02:20:44;;;;;;;;;;;;;;;-147.53;100.00;59759.91;5034918;28;19928;-80
2022/02/24 02:23:10;;;;;;;;;;;;;;;-147.53;100.00;59759.91;5034536;28;20031;-81
2022/02/24 02:25:35;;;;;;;;;;;;;;;-147.53;100.00;59759.91;5034168;28;19917;-81
2022/02/24 02:28:00;;;;;;;;;;;;;;;-147.53;100.00;59759.91;5034580;28;19921;-81
2022/02/24 02:30:25;;;;;;;;;;;;;;;-147.53;100.00;59759.91;5052506;28;19952;-81
2022/02/24 02:32:51;;;;;;;;;;;;;;;-147.53;100.00;59759.91;5034547;28;20003;-81
2022/02/24 02:35:16;;;;;;;;;;;;;;;-147.53;100.00;59759.91;5034547;28;20016;-81
2022/02/24 02:37:41;;;;;;;;;;;;;;;-147.53;100.00;59759.91;5052442;28;20379;-81
2022/02/24 02:40:07;;;;;;;;;;;;;;;-147.53;100.00;59759.91;5034623;28;19917;-81
2022/02/24 02:42:33;;;;;;;;;;;;;;;-147.53;100.00;59759.91;5034617;28;19920;-81
2022/02/24 02:44:58;;;;;;;;;;;;;;;-147.53;100.00;59759.91;5034603;28;20374;-81
2022/02/24 02:47:23;;;;;;;;;;;;;;;-147.53;100.00;59759.91;5052512;28;19927;-81
2022/02/24 02:49:49;;;;;;;;;;;;;;;-147.53;100.00;59759.91;5034540;28;19917;-81
2022/02/24 02:52:14;;;;;;;;;;;;;;;-147.53;100.00;59759.91;5052001;28;19975;-81
2022/02/24 02:54:39;;;;;;;;;;;;;;;-147.53;100.00;59759.91;5034465;28;19924;-80
2022/02/24 02:57:04;;;;;;;;;;;;;;;-147.53;100.00;59759.91;5034234;28;20284;-81
2022/02/24 02:59:30;;;;;;;;;;;;;;;-147.53;100.00;59759.91;5034428;28;19932;-81
2022/02/24 03:01:55;;;;;;;;;;;;;;;-147.53;100.00;59759.91;5034368;28;19924;-81
2022/02/24 03:04:21;;;;;;;;;;;;;;;-147.53;100.00;59759.91;5034379;28;20370;-81
2022/02/24 03:06:46;;;;;;;;;;;;;;;-147.53;100.00;59759.91;5052291;28;19917;-81
2022/02/24 03:09:11;;;;;;;;;;;;;;;-147.53;100.00;59759.91;5034452;28;19916;-82
2022/02/24 03:11:37;;;;;;;;;;;;;;;-147.53;100.00;59759.91;5034504;28;19924;-80
2022/02/24 03:14:02;;;;;;;;;;;;;;;-147.53;100.00;59759.91;5052152;28;19950;-81
2022/02/24 03:16:27;;;;;;;;;;;;;;;-147.53;100.00;59759.91;5034165;28;19924;-82
2022/02/24 03:18:52;;;;;;;;;;;;;;;-147.53;100.00;59759.91;5052165;28;20007;-81
2022/02/24 03:21:18;;;;;;;;;;;;;;;-147.53;100.00;59759.91;5034156;28;19963;-81
2022/02/24 03:23:43;;;;;;;;;;;;;;;-147.53;100.00;59759.91;5033985;28;19917;-80
2022/02/24 03:26:08;;;;;;;;;;;;;;;-147.53;100.00;59759.91;5034125;28;19995;-81
2022/02/24 03:28:34;;;;;;;;;;;;;;;-147.53;100.00;59759.91;5033970;28;19923;-81
2022/02/24 03:30:59;;;;;;;;;;;;;;;-147.53;100.00;59759.91;5051920;28;19936;-81
2022/02/24 03:33:24;;;;;;;;;;;;;;;-147.53;100.00;59759.91;5034080;28;20359;-82
2022/02/24 03:35:49;;;;;;;;;;;;;;;-147.53;100.00;59759.91;5034052;28;19964;-82
2022/02/24 03:38:15;;;;;;;;;;;;;;;-147.53;100.00;59759.91;5036433;28;20320;-81
2022/02/24 03:40:40;;;;;;;;;;;;;;;-147.53;100.00;59759.91;5037688;28;19932;-82
2022/02/24 03:43:05;;;;;;;;;;;;;;;-147.53;100.00;59759.91;5037496;28;19916;-80
2022/02/24 03:45:31;;;;;;;;;;;;;;;-147.53;100.00;59759.91;5037400;28;19920;-81
2022/02/24 03:47:56;;;;;;;;;;;;;;;-147.53;100.00;59759.91;5037239;28;19928;-81
2022/02/24 03:50:23;;;;;;;;;;;;;;;-147.53;100.00;59759.91;5037333;28;19921;-81
2022/02/24 03:52:48;;;;;;;;;;;;;;;-147.53;100.00;59759.91;5055366;28;19916;-82
2022/02/24 03:55:13;;;;;;;;;;;;;;;-147.53;100.00;59759.91;5037701;28;20381;-82
2022/02/24 03:57:38;;;;;;;;;;;;;;;-147.53;100.00;59759.91;5055302;28;20394;-81
2022/02/24 04:00:05;;;;;;;;;;;;;;;-147.53;100.00;59759.91;5037123;28;19916;-82
2022/02/24 04:02:31;;;;;;;;;;;;;;;-147.53;100.00;59759.91;5054917;28;20011;-81
2022/02/24 04:04:56;;;;;;;;;;;;;;;-147.53;100.00;59759.91;5037010;28;19986;-81
2022/02/24 04:07:21;;;;;;;;;;;;;;;-147.53;100.00;59759.91;5036906;28;20370;-81
2022/02/24 04:09:47;;;;;;;;;;;;;;;-147.53;100.00;59759.91;5036715;28;19966;-79
2022/02/24 04:12:15;;;;;;;;;;;;;;;-147.53;100.00;59759.91;5036617;28;19916;-80
2022/02/24 04:14:41;;;;;;;;;;;;;;;-147.53;100.00;59759.91;5054695;28;19998;-81
2022/02/24 04:17:06;;;;;;;;;;;;;;;-147.53;100.00;59759.91;5036469;28;20387;-80
2022/02/24 04:19:31;;;;;;;;;;;;;;;-147.53;100.00;59759.91;5036720;28;20327;-80
2022/02/24 04:21:56;;;;;;;;;;;;;;;-147.53;100.00;59759.91;5054901;28;20031;-80
2022/02/24 04:24:21;;;;;;;;;;;;;;;-147.53;100.00;59759.91;5054839;28;20498;-80
2022/02/24 04:26:47;;;;;;;;;;;;;;;-147.53;100.00;59759.91;5054732;28;20342;-80
2022/02/24 04:29:12;;;;;;;;;;;;;;;-147.53;100.00;59759.91;5036887;28;20355;-80
2022/02/24 04:31:37;;;;;;;;;;;;;;;-147.53;100.00;59759.91;5054512;28;20453;-81
2022/02/24 04:34:02;;;;;;;;;;;;;;;-147.53;100.00;59759.91;5036865;28;19922;-80
2022/02/24 04:36:28;;;;;;;;;;;;;;;-147.53;100.00;59759.91;5036586;28;19940;-81
2022/02/24 04:38:53;;;;;;;;;;;;;;;-147.53;100.00;59759.91;5036677;28;19917;-80
2022/02/24 04:41:18;;;;;;;;;;;;;;;-147.53;100.00;59759.91;5054566;28;19924;-80
2022/02/24 04:43:43;;;;;;;;;;;;;;;-147.53;100.00;59759.91;5054414;28;19923;-81
2022/02/24 04:46:08;;;;;;;;;;;;;;;-147.53;100.00;59759.91;5054329;28;20016;-80
2022/02/24 04:48:34;;;;;;;;;;;;;;;-147.53;100.00;59759.91;5035880;28;19920;-80
2022/02/24 04:50:59;;;;;;;;;;;;;;;-147.53;100.00;59759.91;5035764;28;20369;-80
2022/02/24 04:53:25;;;;;;;;;;;;;;;-147.53;100.00;59759.91;5053890;28;19971;-81
2022/02/24 04:55:50;;;;;;;;;;;;;;;-147.53;100.00;59759.91;5036228;28;19959;-80
2022/02/24 04:58:15;;;;;;;;;;;;;;;-147.53;100.00;59759.91;5036054;28;19968;-81
2022/02/24 05:00:41;;;;;;;;;;;;;;;-147.53;100.00;59759.91;5053926;28;19959;-80
2022/02/24 05:03:08;;;;;;;;;;;;;;;-147.53;100.00;59759.91;5035640;28;21325;-81
2022/02/24 05:05:33;;;;;;;;;;;;;;;-147.53;100.00;59759.91;5035788;28;19975;-81
2022/02/24 05:08:01;;;;;;;;;;;;;;;-147.53;100.00;59759.91;5035757;28;19940;-81
2022/02/24 05:10:27;;;;;;;;;;;;;;;-147.53;100.00;59759.91;5036057;28;19917;-81
2022/02/24 05:12:52;;;;;;;;;;;;;;;-147.53;100.00;59759.91;5053890;28;20429;-82
2022/02/24 05:15:17;;;;;;;;;;;;;;;-147.53;100.00;59759.91;5053831;28;19921;-80
2022/02/24 05:17:43;;;;;;;;;;;;;;;-147.53;100.00;59759.91;5035624;28;19920;-81
2022/02/24 05:20:09;;;;;;;;;;;;;;;-147.53;100.00;59759.91;5035668;28;19924;-82
2022/02/24 05:22:34;;;;;;;;;;;;;;;-147.53;100.00;59759.91;5035609;28;20440;-80
2022/02/24 05:25:00;;;;;;;;;;;;;;;-147.53;100.00;59759.91;5053707;28;20424;-81
2022/02/24 05:27:25;;;;;;;;;;;;;;;-147.53;100.00;59759.91;5035754;28;19962;-80
2022/02/24 05:29:50;;;;;;;;;;;;;;;-147.53;100.00;59759.91;5053500;28;19959;-81
2022/02/24 05:32:15;;;;;;;;;;;;;;;-147.53;100.00;59759.91;5053449;28;19917;-81
2022/02/24 05:34:40;;;;;;;;;;;;;;;-147.53;100.00;59759.91;5054639;28;19920;-80
2022/02/24 05:37:06;;;;;;;;;;;;;;;-147.53;100.00;59759.91;5035528;28;20295;-81
2022/02/24 05:39:31;;;;;;;;;;;;;;;-147.53;100.00;59759.91;5052989;28;20024;-81
2022/02/24 05:41:58;;;;;;;;;;;;;;;-147.53;100.00;59759.91;5035122;28;19923;-81
2022/02/24 05:44:25;;;;;;;;;;;;;;;-147.53;100.00;59759.91;5035363;28;20011;-82
2022/02/24 05:46:50;;;;;;;;;;;;;;;-147.53;100.00;59759.91;5035186;28;20312;-81
2022/02/24 05:49:16;;;;;;;;;;;;;;;-147.53;100.00;59759.91;5052880;28;19929;-81
2022/02/24 05:51:42;;;;;;;;;;;;;;;-147.53;100.00;59759.91;5052975;28;19927;-81
2022/02/24 05:54:07;;;;;;;;;;;;;;;-147.53;100.00;59759.91;5035207;28;19921;-81
2022/02/24 05:56:33;;;;;;;;;;;;;;;-147.53;100.00;59759.91;5053015;28;20297;-81
2022/02/24 05:58:58;;;;;;;;;;;;;;;-147.53;100.00;59759.91;5035007;28;19916;-81
2022/02/24 06:01:24;;;;;;;;;;;;;;;-147.53;100.00;59759.91;5034164;28;20377;-81
2022/02/24 06:03:50;;;;;;;;;;;;;;;-147.53;100.00;59759.91;5034940;28;19912;-82
2022/02/24 06:06:15;;;;;;;;;;;;;;;-147.53;100.00;59759.91;5035008;28;19917;-82
2022/02/24 06:08:40;;;;;;;;;;;;;;;-147.53;100.00;59759.91;5053066;28;19921;-81
2022/02/24 06:11:05;;;;;;;;;;;;;;;-147.53;100.00;59759.91;5052669;28;20019;-81
2022/02/24 06:13:30;;;;;;;;;;;;;;;-147.53;100.00;59759.91;5035023;28;19978;-82
2022/02/24 06:15:56;;;;;;;;;;;;;;;-147.53;100.00;59759.91;5052823;28;20286;-83
2022/02/24 06:18:21;;;;;;;;;;;;;;;-147.53;100.00;59759.91;5035310;28;20393;-82
2022/02/24 06:20:46;;;;;;;;;;;;;;;-147.53;100.00;59759.91;5035151;28;19920;-81
2022/02/24 06:23:12;;;;;;;;;;;;;;;-147.53;100.00;59759.91;5053004;28;19917;-83
2022/02/24 06:25:37;;;;;;;;;;;;;;;-147.53;100.00;59759.91;5018535;28;20285;-83
2022/02/24 06:28:03;;;;;;;;;;;;;;;-147.53;100.00;59759.91;5035568;28;19927;-81
2022/02/24 06:30:28;;;;;;;;;;;;;;;-147.53;100.00;59759.91;5035666;28;19924;-84
2022/02/24 06:32:53;;;;;;;;;;;;;;;-147.53;100.00;59759.91;5035097;28;19917;-82
2022/02/24 06:35:18;;;;;;;;;;;;;;;-147.53;100.00;59759.91;5052926;28;19992;-82
2022/02/24 06:37:43;;;;;;;;;;;;;;;-147.53;100.00;59759.91;5034694;28;19917;-83
2022/02/24 06:40:12;;;;;;;;;;;;;;;-147.53;100.00;59759.91;5052628;28;19924;-82
2022/02/24 06:42:37;;;;;;;;;;;;;;;-147.53;100.00;59759.91;5052792;28;19916;-82
2022/02/24 06:45:03;;;;;;;;;;;;;;;-147.53;100.00;59759.91;5034661;28;19939;-81
2022/02/24 06:47:28;;;;;;;;;;;;;;;-147.53;100.00;59759.91;5052633;28;19928;-79
2022/02/24 06:49:54;;;;;;;;;;;;;;;-147.53;100.00;59759.91;5052682;28;19968;-82
2022/02/24 06:52:19;;;;;;;;;;;;;;;-147.53;100.00;59759.91;5053059;28;19924;-84
2022/02/24 06:54:44;;;;;;;;;;;;;;;-147.53;100.00;59759.91;5035681;28;19917;-84
2022/02/24 06:57:09;;;;;;;;;;;;;;;-147.53;100.00;59759.91;5053369;28;19962;-84
2022/02/24 06:59:35;;;;;;;;;;;;;;;-147.53;100.00;59759.91;5053671;28;19916;-83
2022/02/24 07:02:00;;;;;;;;;;;;;;;-147.53;100.00;59759.91;5053083;28;20015;-86
2022/02/24 07:04:25;;;;;;;;;;;;;;;-147.53;100.00;59759.91;5053749;28;19923;-83
2022/02/24 07:06:51;;;;;;;;;;;;;;;-147.53;100.00;59759.91;5034899;28;20011;-86
2022/02/24 07:09:16;;;;;;;;;;;;;;;-147.53;100.00;59759.91;5052802;28;19924;-84
2022/02/24 07:11:41;;;;;;;;;;;;;;;-147.53;100.00;59759.91;5034955;28;19917;-82
2022/02/24 07:14:06;;;;;;;;;;;;;;;-147.53;100.00;59759.91;5038920;28;19924;-82
2022/02/24 07:16:33;;;;;;;;;;;;;;;-147.53;100.00;59759.91;5038563;28;20321;-82
2022/02/24 07:18:59;;;;;;;;;;;;;;;-147.53;100.00;59759.91;5056490;28;20382;-81
2022/02/24 07:21:24;;;;;;;;;;;;;;;-147.53;100.00;59759.91;5054232;28;19971;-82
2022/02/24 07:23:49;;;;;;;;;;;;;;;-147.53;100.00;59759.91;5054715;28;20471;-81
2022/02/24 07:26:14;;;;;;;;;;;;;;;-147.53;100.00;59759.91;5036965;28;19916;-81
2022/02/24 07:28:43;;;;;;;;;;;;;;;-147.53;100.00;59759.91;5038858;28;19924;-83
2022/02/24 07:31:08;;;;;;;;;;;;;;;-147.53;100.00;59759.91;5056190;28;19920;-82
2022/02/24 07:33:33;;;;;;;;;;;;;;;-147.53;100.00;59759.91;5056405;28;19917;-83
2022/02/24 07:35:59;;;;;;;;;;;;;;;-147.53;100.00;59759.91;5037833;28;20007;-81
2022/02/24 07:38:24;;;;;;;;;;;;;;;-147.53;100.00;59759.91;5037705;28;20294;-82
2022/02/24 07:40:49;;;;;;;;;;;;;;;-147.53;100.00;59759.91;5037526;28;20389;-81
2022/02/24 07:43:14;;;;;;;;;;;;;;;-147.53;100.00;59759.91;5037566;28;19923;-82
2022/02/24 07:45:40;;;;;;;;;;;;;;;-147.53;100.00;59759.91;5037557;28;19916;-82
2022/02/24 07:48:05;;;;;;;;;;;;;;;-147.53;100.00;59759.91;5054773;28;19927;-81
2022/02/24 07:50:30;;;;;;;;;;;;;;;-147.53;100.00;59759.91;5036592;28;19956;-82
2022/02/24 07:52:55;;;;;;;;;;;;;;;-147.53;100.00;59759.91;5036951;28;19928;-81
2022/02/24 07:55:21;;;;;;;;;;;;;;;-147.53;100.00;59759.91;5037005;28;20405;-84
2022/02/24 07:57:46;;;;;;;;;;;;;;;-147.53;100.00;59759.91;5054898;28;19912;-83
2022/02/24 08:00:13;;;;;;;;;;;;;;;-147.53;100.00;59759.91;5037145;28;19952;-83
2022/02/24 08:02:38;;;;;;;;;;;;;;;-147.53;100.00;59759.91;5040628;28;19917;-81
2022/02/24 08:05:04;;;;;;;;;;;;;;;-147.53;100.00;59759.91;5042972;28;19917;-83
2022/02/24 08:07:29;;;;;;;;;;;;;;;-147.53;100.00;59759.91;5058835;28;20401;-84
2022/02/24 08:09:54;;;;;;;;;;;;;;;-147.53;100.00;59759.91;5042645;28;20004;-83
2022/02/24 08:15:03;;;;;;;;;;;;;;;-147.53;100.00;59759.91;5055078;28;19928;-84
2022/02/24 08:17:28;;;;;;;;;;;;;;;-147.53;100.00;59759.91;5054948;28;19921;-84
2022/02/24 08:19:54;;;;;;;;;;;;;;;-147.53;100.00;59759.91;5036692;28;19925;-84
2022/02/24 08:22:19;;;;;;;;;;;;;;;-147.53;100.00;59759.91;5036923;28;19917;-83
2022/02/24 08:24:45;;;;;;;;;;;;;;;-147.53;100.00;59759.91;5035712;28;19917;-83
2022/02/24 08:27:10;;;;;;;;;;;;;;;-147.53;100.00;59759.91;5054715;28;19955;-84
2022/02/24 08:29:35;;;;;;;;;;;;;;;-147.53;100.00;59759.91;5036463;28;19967;-83
2022/02/24 08:32:00;;;;;;;;;;;;;;;-147.53;100.00;59759.91;5036749;28;20423;-84
2022/02/24 08:34:25;;;;;;;;;;;;;;;-147.53;100.00;59759.91;5036939;28;20632;-84
2022/02/24 08:36:51;;;;;;;;;;;;;;;-147.53;100.00;59759.91;5055112;28;20448;-84
2022/02/24 08:39:20;;;;;;;;;;;;;;;-147.53;100.00;59759.91;5055036;28;19924;-84
2022/02/24 08:41:45;;;;;;;;;;;;;;;-147.53;100.00;59759.91;5036654;28;19917;-85
2022/02/24 08:44:10;;;;;;;;;;;;;;;-147.53;100.00;59759.91;5054551;28;19927;-84
2022/02/24 08:46:36;;;;;;;;;;;;;;;-147.53;100.00;59759.91;5019861;28;19920;-83
2022/02/24 08:49:01;;;;;;;;;;;;;;;-147.53;100.00;59759.91;5036416;28;19944;-84
2022/02/24 08:51:26;;;;;;;;;;;;;;;-147.53;100.00;59759.91;5053953;28;20039;-83
2022/02/24 08:53:51;;;;;;;;;;;;;;;-147.53;100.00;59759.91;5036365;28;19960;-84
2022/02/24 08:56:17;;;;;;;;;;;;;;;-147.53;100.00;59759.91;5036586;28;20050;-84
2022/02/24 08:58:42;;;;;;;;;;;;;;;-147.53;100.00;59759.91;5036282;28;19913;-84
2022/02/24 09:01:07;;;;;;;;;;;;;;;-147.53;100.00;59759.91;5054008;28;19920;-84
2022/02/24 09:03:32;;;;;;;;;;;;;;;-147.53;100.00;59759.91;5036294;28;19917;-84
2022/02/24 09:05:57;;;;;;;;;;;;;;;-147.53;100.00;59759.91;5036099;28;19917;-84
2022/02/24 09:08:23;;;;;;;;;;;;;;;-147.53;100.00;59759.91;5036147;28;19966;-85
2022/02/24 09:10:48;;;;;;;;;;;;;;;-147.53;100.00;59759.91;5035686;28;19979;-85
2022/02/24 09:13:13;;;;;;;;;;;;;;;-147.53;100.00;59759.91;5036394;28;19917;-84
2022/02/24 09:15:38;;;;;;;;;;;;;;;-147.53;100.00;59759.91;5053886;28;19939;-84
2022/02/24 09:18:04;;;;;;;;;;;;;;;-147.53;100.00;59759.91;5054967;28;20368;-86
2022/02/24 09:20:29;;;;;;;;;;;;;;;-147.53;100.00;59759.91;5036379;28;20250;-84
2022/02/24 09:22:55;;;;;;;;;;;;;;;-147.53;100.00;59759.91;5035986;28;19917;-83
2022/02/24 09:25:21;;;;;;;;;;;;;;;-147.53;100.00;59759.91;5035902;28;20410;-84
2022/02/24 09:27:46;;;;;;;;;;;;;;;-147.53;100.00;59759.91;5035822;28;20418;-85
2022/02/24 09:30:11;;;;;;;;;;;;;;;-147.53;100.00;59759.91;5035779;28;19916;-85
2022/02/24 09:32:37;;;;;;;;;;;;;;;-147.53;100.00;59759.91;5035499;28;19916;-84
2022/02/24 09:35:03;;;;;;;;;;;;;;;-147.53;100.00;59759.91;5035231;28;19967;-83
2022/02/24 09:37:34;;;;;;;;;;;;;;;-147.53;100.00;59759.91;5035200;28;19920;-84
2022/02/24 09:39:59;;;;;;;;;;;;;;;-147.53;100.00;59759.91;5035034;28;20353;-83
2022/02/24 09:42:24;;;;;;;;;;;;;;;-147.53;100.00;59759.91;5035405;28;20024;-84
2022/02/24 09:44:50;;;;;;;;;;;;;;;-147.53;100.00;59759.91;5035268;28;19944;-83
2022/02/24 09:47:16;;;;;;;;;;;;;;;-147.53;100.00;59759.91;5035167;28;20012;-84
2022/02/24 09:49:41;;;;;;;;;;;;;;;-147.53;100.00;59759.91;5052589;28;19932;-83
2022/02/24 09:52:07;;;;;;;;;;;;;;;-147.53;100.00;59759.91;5035113;28;20015;-85
2022/02/24 09:54:32;;;;;;;;;;;;;;;-147.53;100.00;59759.91;5053093;28;19917;-84
2022/02/24 09:56:57;;;;;;;;;;;;;;;-147.53;100.00;59759.91;5035277;28;20373;-85
2022/02/24 09:59:24;;;;;;;;;;;;;;;-147.53;100.00;59759.91;5034884;28;20275;-84
2022/02/24 10:01:52;;;;;;;;;;;;;;;-147.53;100.00;59759.91;5053016;28;19917;-84
2022/02/24 10:04:18;;;;;;;;;;;;;;;-147.53;100.00;59759.91;5035304;28;20338;-85
2022/02/24 10:06:44;;;;;;;;;;;;;;;-147.53;100.00;59759.91;5035230;28;19963;-84
2022/02/24 10:09:10;;;;;;;;;;;;;;;-147.53;100.00;59759.91;5034841;28;19963;-85
2022/02/24 10:11:35;;;;;;;;;;;;;;;-147.53;100.00;59759.91;5035281;28;20370;-86
2022/02/24 10:14:24;;;;;;;;;;;;;;;-147.53;100.00;59759.91;5053024;28;19967;-84
2022/02/24 10:16:52;;;;;;;;;;;;;;;-147.53;100.00;59759.91;5034698;28;20043;-85
2022/02/24 10:19:18;;;;;;;;;;;;;;;-147.53;100.00;59759.91;5034826;28;19924;-84
2022/02/24 10:22:03;;;;;;;;;;;;;;;-147.53;100.00;59759.91;5034890;28;20279;-85
2022/02/24 10:24:29;;;;;;;;;;;;;;;-147.53;100.00;59759.91;5034795;28;19971;-85
2022/02/24 10:27:14;;;;;;;;;;;;;;;-147.53;100.00;59759.91;5035105;28;20278;-85
2022/02/24 10:29:49;;;;;;;;;;;;;;;-147.53;100.00;59759.91;5052561;28;19917;-85
2022/02/24 10:32:27;;;;;;;;;;;;;;;-147.53;100.00;59759.91;5052374;28;20382;-84
2022/02/24 10:34:52;;;;;;;;;;;;;;;-147.53;100.00;59759.91;5035024;28;20015;-85
2022/02/24 10:37:18;;;;;;;;;;;;;;;-147.53;100.00;59759.91;5034790;28;19959;-84
2022/02/24 10:39:43;;;;;;;;;;;;;;;-147.53;100.00;59759.91;5052403;28;19916;-84
2022/02/24 10:42:08;;;;;;;;;;;;;;;-147.53;100.00;59759.91;5052761;28;19970;-85
2022/02/24 10:44:35;;;;;;;;;;;;;;;-147.53;100.00;59759.91;5034867;28;19971;-85
2022/02/24 10:47:03;;;;;;;;;;;;;;;-147.53;100.00;59759.91;5035533;28;19917;-85
2022/02/24 10:49:29;;;;;;;;;;;;;;;-147.53;100.00;59759.91;5055442;28;19928;-85
2022/02/24 10:52:15;;;;;;;;;;;;;;;-147.53;100.00;59759.91;5038590;28;19917;-85
2022/02/24 10:54:41;;;;;;;;;;;;;;;-147.53;100.00;59759.91;5038820;28;20290;-85
2022/02/24 10:57:24;;;;;;;;;;;;;;;-147.53;100.00;59759.91;5056876;28;20382;-84
2022/02/24 10:59:49;;;;;;;;;;;;;;;-147.53;100.00;59759.91;5038215;28;19994;-84
2022/02/24 11:02:14;;;;;;;;;;;;;;;-147.53;100.00;59759.91;5038866;28;20367;-83
2022/02/24 11:04:40;;;;;;;;;;;;;;;-147.53;100.00;59759.91;5038996;28;19916;-85
2022/02/24 11:07:07;;;;;;;;;;;;;;;-147.53;100.00;59759.91;5057188;28;19924;-85
2022/02/24 11:09:34;;;;;;;;;;;;;;;-147.53;100.00;59759.91;5038801;28;19967;-85
2022/02/24 11:12:02;;;;;;;;;;;;;;;-147.53;100.00;59759.91;5038370;28;19917;-85
2022/02/24 11:14:27;;;;;;;;;;;;;;;-147.53;100.00;59759.91;5038401;28;19951;-85
2022/02/24 11:16:52;;;;;;;;;;;;;;;-147.53;100.00;59759.91;5056009;28;19928;-85
2022/02/24 11:19:18;;;;;;;;;;;;;;;-147.53;100.00;59759.91;5045530;28;19928;-85
2022/02/24 11:21:44;;;;;;;;;;;;;;;-147.53;100.00;59759.91;5058195;28;20352;-85
2022/02/24 11:24:09;;;;;;;;;;;;;;;-147.53;100.00;59759.91;5058050;28;20198;-84
2022/02/24 11:26:40;;;;;;;;;;;;;;;-147.53;100.00;59759.91;5057899;28;19916;-85
2022/02/24 11:29:10;;;;;;;;;;;;;;;-147.53;100.00;59759.91;5057779;28;19912;-83
2022/02/24 11:31:52;;;;;;;;;;;;;;;-147.53;100.00;59759.91;5075566;28;19916;-83
2022/02/24 11:34:17;;;;;;;;;;;;;;;-147.53;100.00;59759.91;5057583;28;20038;-83
2022/02/24 11:36:46;;;;;;;;;;;;;;;-147.53;100.00;59759.91;5057290;28;19963;-83
2022/02/24 11:39:18;;;;;;;;;;;;;;;-147.53;100.00;59759.91;5075397;28;19966;-84
2022/02/24 11:41:53;;;;;;;;;;;;;;;-147.53;100.00;59759.91;5057406;28;20011;-83
2022/02/24 11:44:35;;;;;;;;;;;;;;;-147.53;100.00;59759.91;5057296;28;19923;-85
2022/02/24 11:47:02;;;;;;;;;;;;;;;-147.53;100.00;59759.91;5075311;28;19917;-83
2022/02/24 11:49:46;;;;;;;;;;;;;;;-147.53;100.00;59759.91;5047582;28;20396;-84
2022/02/24 11:52:21;;;;;;;;;;;;;;;-147.53;100.00;59759.91;5054122;28;19928;-83
2022/02/24 11:54:47;;;;;;;;;;;;;;;-147.53;100.00;59759.91;5055026;28;19956;-84
2022/02/24 11:57:28;;;;;;;;;;;;;;;-147.53;100.00;59759.91;5055270;28;19956;-83
2022/02/24 11:59:54;;;;;;;;;;;;;;;-147.53;100.00;59759.91;5037337;28;20290;-83
2022/02/24 12:02:20;;;;;;;;;;;;;;;-147.53;100.00;59759.91;5037239;28;19917;-83
2022/02/24 12:04:46;;;;;;;;;;;;;;;-147.53;100.00;59759.91;5036479;28;20307;-83
2022/02/24 12:07:13;;;;;;;;;;;;;;;-147.53;100.00;59759.91;5054265;28;19927;-83
2022/02/24 12:09:38;;;;;;;;;;;;;;;-147.53;100.00;59759.91;5037139;28;19917;-82
2022/02/24 12:12:04;;;;;;;;;;;;;;;-147.53;100.00;59759.91;5037112;28;20271;-82
2022/02/24 12:14:32;;;;;;;;;;;;;;;-147.53;100.00;59759.91;5037133;28;20289;-83